Time;durP1;ratioP1;P1;durP2;ratioP2;P2;SDS_P1;SDS_P2;PMS_P1;PMS_P2;Temp;Humidity;BMP_temperature;BMP_pressure;BME280_temperature;BME280_humidity;BME280_pressure;Samples;Min_cycle;Max_cycle;Signal;HPM_P1;HPM_P2
2020/04/02 00:00:09;;;;;;;16.2;14.5;;;;;;;2.67;60.71973;956.3667;;;;
2020/04/02 00:02:35;;;;;;;16.8;14.3;;;;;;;2.68;60.9707;956.3969;;;;
2020/04/02 00:05:00;;;;;;;18.3;14.5;;;;;;;2.63;61.3584;956.3691;;;;
2020/04/02 00:07:25;;;;;;;18;14;;;;;;;2.69;61.01758;956.3513;;;;
2020/04/02 00:09:51;;;;;;;15.5;13.9;;;;;;;2.69;61.0625;956.2881;;;;
2020/04/02 00:12:16;;;;;;;16.7;14.9;;;;;;;2.61;61.20898;956.3111;;;;
2020/04/02 00:14:41;;;;;;;19.9;14.5;;;;;;;2.59;62.10938;956.3221;;;;
2020/04/02 00:17:06;;;;;;;18;14.8;;;;;;;2.56;62.44434;956.3054;;;;
2020/04/02 00:19:32;;;;;;;18.3;14.6;;;;;;;2.46;61.74023;956.2367;;;;
2020/04/02 00:21:57;;;;;;;19.1;15.1;;;;;;;2.47;62.9502;956.2098;;;;
2020/04/02 00:24:22;;;;;;;19.2;15.7;;;;;;;2.47;63.57031;956.1936;;;;
2020/04/02 00:26:47;;;;;;;18.8;15.8;;;;;;;2.45;65.26367;956.1876;;;;
2020/04/02 00:29:12;;;;;;;19.3;16.4;;;;;;;2.46;63.88672;956.166;;;;
2020/04/02 00:31:37;;;;;;;19.9;16.7;;;;;;;2.38;64.82227;956.1608;;;;
2020/04/02 00:34:02;;;;;;;20.7;15.8;;;;;;;2.32;65.95508;956.1702;;;;
2020/04/02 00:36:27;;;;;;;19.5;17;;;;;;;2.4;65.9209;956.1272;;;;
2020/04/02 00:38:52;;;;;;;21.1;17;;;;;;;2.31;66.12109;956.0743;;;;
2020/04/02 00:41:17;;;;;;;19.9;17.3;;;;;;;2.21;66.72656;956.0912;;;;
2020/04/02 00:43:42;;;;;;;20.9;18;;;;;;;2.13;67.77637;956.1097;;;;
2020/04/02 00:46:07;;;;;;;21.1;18.1;;;;;;;2.17;68.24512;956.027;;;;
2020/04/02 00:48:32;;;;;;;19.5;17.1;;;;;;;2.2;67.82031;956.0428;;;;
2020/04/02 00:50:58;;;;;;;19.8;17.7;;;;;;;2.13;69.25293;955.9658;;;;
2020/04/02 00:53:23;;;;;;;21.9;18.2;;;;;;;2.13;68.68848;955.9995;;;;
2020/04/02 00:55:48;;;;;;;23.1;18.4;;;;;;;2.07;68.53223;956.0561;;;;
2020/04/02 00:58:13;;;;;;;22.2;19.3;;;;;;;2.01;69.16602;956.007;;;;
2020/04/02 01:00:38;;;;;;;26.8;21.3;;;;;;;1.97;69.18164;955.9944;;;;
2020/04/02 01:03:04;;;;;;;28.9;21.5;;;;;;;2.12;68.95801;955.9867;;;;
2020/04/02 01:05:28;;;;;;;29.5;23.1;;;;;;;1.99;69.66992;955.9945;;;;
2020/04/02 01:08:39;;;;;;;32.8;24.4;;;;;;;1.96;69.99219;955.9539;;;;
2020/04/02 01:11:04;;;;;;;30.1;22;;;;;;;1.97;69.63281;955.9503;;;;
2020/04/02 01:13:29;;;;;;;27;20.8;;;;;;;1.95;69.92285;955.9471;;;;
2020/04/02 01:15:54;;;;;;;26;20.3;;;;;;;1.97;69.72266;955.959;;;;
2020/04/02 01:18:19;;;;;;;24.5;19.6;;;;;;;1.85;70.65137;955.9512;;;;
2020/04/02 01:20:44;;;;;;;23.4;19.4;;;;;;;1.8;70.70996;955.9138;;;;
2020/04/02 01:23:10;;;;;;;24.6;19.5;;;;;;;1.63;71.10938;955.9081;;;;
2020/04/02 01:25:35;;;;;;;25.9;19.8;;;;;;;1.71;70.60449;955.8759;;;;
2020/04/02 01:28:00;;;;;;;24;20.3;;;;;;;1.63;71.17773;955.8551;;;;
2020/04/02 01:30:25;;;;;;;25.3;20.5;;;;;;;1.6;70.89063;955.8088;;;;
2020/04/02 01:32:50;;;;;;;25.5;20.7;;;;;;;1.57;70.19922;955.8003;;;;
2020/04/02 01:35:15;;;;;;;25.6;20.6;;;;;;;1.67;70.13672;955.8144;;;;
2020/04/02 01:37:40;;;;;;;24.8;20.6;;;;;;;1.59;70.10059;955.8195;;;;
2020/04/02 01:40:05;;;;;;;26.1;20.8;;;;;;;1.61;71.28711;955.7882;;;;
2020/04/02 01:42:37;;;;;;;26.1;21.1;;;;;;;1.55;70.93848;955.7581;;;;
2020/04/02 01:45:02;;;;;;;25.3;20.5;;;;;;;1.54;70.58789;955.6774;;;;
2020/04/02 01:47:32;;;;;;;24.6;20.4;;;;;;;1.43;71.60449;955.7147;;;;
2020/04/02 01:49:57;;;;;;;24.6;19.6;;;;;;;1.35;72.05566;955.7339;;;;
2020/04/02 01:52:22;;;;;;;23.2;19.8;;;;;;;1.48;71.2998;955.683;;;;
2020/04/02 01:54:48;;;;;;;21.8;19.1;;;;;;;1.59;70.33691;955.5578;;;;
2020/04/02 01:57:13;;;;;;;23.8;19.6;;;;;;;1.53;70.74219;955.616;;;;
2020/04/02 01:59:38;;;;;;;24.5;20.8;;;;;;;1.49;70.99707;955.5845;;;;
2020/04/02 02:02:03;;;;;;;23.6;20.7;;;;;;;1.49;70.7832;955.5714;;;;
2020/04/02 02:04:28;;;;;;;27.1;20.9;;;;;;;1.53;70.65527;955.5497;;;;
2020/04/02 02:07:02;;;;;;;26.3;20.7;;;;;;;1.4;70.90332;955.5233;;;;
2020/04/02 02:09:27;;;;;;;24.2;19.7;;;;;;;1.49;70.95215;955.5281;;;;
2020/04/02 02:11:52;;;;;;;23.3;20;;;;;;;1.39;70.87793;955.4963;;;;
2020/04/02 02:14:18;;;;;;;22.6;20;;;;;;;1.25;72.31934;955.6381;;;;
2020/04/02 02:16:43;;;;;;;23.2;19.9;;;;;;;1.34;71.61328;955.6127;;;;
2020/04/02 02:19:08;;;;;;;27.3;19.9;;;;;;;1.23;71.82031;955.6822;;;;
2020/04/02 02:21:33;;;;;;;24;19.9;;;;;;;1.18;72.46484;955.6804;;;;
2020/04/02 02:23:58;;;;;;;23.4;19.5;;;;;;;1.16;72.77637;955.6933;;;;
2020/04/02 02:26:37;;;;;;;22.8;20.1;;;;;;;1.16;72.75391;955.6531;;;;
2020/04/02 02:29:02;;;;;;;21.8;19.4;;;;;;;1.13;72.74805;955.6828;;;;
2020/04/02 02:31:27;;;;;;;23.9;19.7;;;;;;;1.11;72.2627;955.6277;;;;
2020/04/02 02:34:01;;;;;;;22.9;19.7;;;;;;;1.21;72.00781;955.7011;;;;
2020/04/02 02:36:26;;;;;;;22.6;19.3;;;;;;;1.12;72.09375;955.6889;;;;
2020/04/02 02:38:51;;;;;;;24.7;20.4;;;;;;;1.08;72.4248;955.6799;;;;
2020/04/02 02:41:17;;;;;;;24.2;20.2;;;;;;;1.03;73.14941;955.7;;;;
2020/04/02 02:45:43;;;;;;;24.2;20.3;;;;;;;1.02;72.61816;955.718;;;;
2020/04/02 02:48:08;;;;;;;25.4;19.8;;;;;;;0.97;72.81055;955.6831;;;;
2020/04/02 02:50:33;;;;;;;23;19.9;;;;;;;1.07;72.44629;955.6544;;;;
2020/04/02 02:52:58;;;;;;;23.5;19.7;;;;;;;1.07;72.45605;955.6325;;;;
2020/04/02 02:55:23;;;;;;;22.4;19.8;;;;;;;0.94;73.48047;955.6006;;;;
2020/04/02 02:57:48;;;;;;;24.5;20.4;;;;;;;0.92;73.51172;955.6269;;;;
2020/04/02 03:00:13;;;;;;;26;20.9;;;;;;;0.88;73.5166;955.6508;;;;
2020/04/02 03:02:48;;;;;;;24.3;19.9;;;;;;;0.87;73.68262;955.6511;;;;
2020/04/02 03:05:13;;;;;;;25.9;20.4;;;;;;;0.85;73.61133;955.6436;;;;
2020/04/02 03:07:50;;;;;;;25.7;20.5;;;;;;;0.8;73.98633;955.6164;;;;
2020/04/02 03:10:15;;;;;;;24.2;20.4;;;;;;;0.76;74.63086;955.6079;;;;
2020/04/02 03:12:40;;;;;;;26.2;20.5;;;;;;;0.69;74.77539;955.5934;;;;
2020/04/02 03:15:05;;;;;;;23.8;20.2;;;;;;;0.79;74.06348;955.653;;;;
2020/04/02 03:17:30;;;;;;;23.8;20.7;;;;;;;0.77;74.49707;955.6019;;;;
2020/04/02 03:19:55;;;;;;;23.1;20.5;;;;;;;0.73;74.24316;955.6266;;;;
2020/04/02 03:22:20;;;;;;;22.6;19.6;;;;;;;0.75;74.1582;955.566;;;;
2020/04/02 03:24:45;;;;;;;24.1;20;;;;;;;0.75;74.02148;955.5995;;;;
2020/04/02 03:27:10;;;;;;;23.3;20.9;;;;;;;0.72;74.54395;955.598;;;;
2020/04/02 03:29:35;;;;;;;22.3;19.9;;;;;;;0.78;73.87988;955.5437;;;;
2020/04/02 03:32:07;;;;;;;23.6;20.9;;;;;;;0.78;74.375;955.5725;;;;
2020/04/02 03:34:35;;;;;;;24.5;20.6;;;;;;;0.68;74.52637;955.5646;;;;
2020/04/02 03:39:46;;;;;;;23.2;20.4;;;;;;;0.82;74.38184;955.5411;;;;
2020/04/02 03:42:11;;;;;;;27.3;20.3;;;;;;;0.82;74.36035;955.5557;;;;
2020/04/02 03:44:36;;;;;;;26.9;21.8;;;;;;;0.79;74.62402;955.5341;;;;
2020/04/02 03:47:01;;;;;;;26.8;22;;;;;;;0.7;75.50977;955.5144;;;;
2020/04/02 03:49:26;;;;;;;25.6;22.1;;;;;;;0.61;75.46973;955.53;;;;
2020/04/02 03:51:51;;;;;;;30;21.2;;;;;;;0.58;76.19531;955.5106;;;;
2020/04/02 03:54:16;;;;;;;26.6;22;;;;;;;0.56;76.24707;955.5151;;;;
2020/04/02 03:56:41;;;;;;;23.9;21.3;;;;;;;0.56;75.91113;955.5083;;;;
2020/04/02 03:59:06;;;;;;;23.3;20.6;;;;;;;0.62;75.49512;955.5778;;;;
2020/04/02 04:02:26;;;;;;;26.5;21;;;;;;;0.73;75.29883;955.5366;;;;
2020/04/02 04:04:51;;;;;;;25.9;21.4;;;;;;;0.61;76.33496;955.5002;;;;
2020/04/02 04:07:16;;;;;;;25.8;22.1;;;;;;;0.55;76.50586;955.5447;;;;
2020/04/02 04:09:41;;;;;;;26.4;21.3;;;;;;;0.49;76.68359;955.5101;;;;
2020/04/02 04:12:06;;;;;;;25.5;21.3;;;;;;;0.54;75.7832;955.5076;;;;
2020/04/02 04:14:31;;;;;;;23.6;21;;;;;;;0.56;75.61719;955.5353;;;;
2020/04/02 04:16:57;;;;;;;24.3;21.5;;;;;;;0.59;75.47754;955.5538;;;;
2020/04/02 04:19:22;;;;;;;24.2;21.7;;;;;;;0.52;75.72461;955.5031;;;;
2020/04/02 04:21:47;;;;;;;23.4;20.9;;;;;;;0.6;75.18652;955.5364;;;;
2020/04/02 04:24:12;;;;;;;25.8;21.8;;;;;;;0.57;75.42969;955.541;;;;
2020/04/02 04:26:37;;;;;;;25.8;22.2;;;;;;;0.45;76.9707;955.5206;;;;
2020/04/02 04:29:02;;;;;;;25.6;21.5;;;;;;;0.47;76.51367;955.5076;;;;
2020/04/02 04:31:27;;;;;;;24.7;21.7;;;;;;;0.41;76.25684;955.5031;;;;
2020/04/02 04:33:52;;;;;;;23.4;20.9;;;;;;;0.4;76.08496;955.5314;;;;
2020/04/02 04:36:18;;;;;;;24.2;21.7;;;;;;;0.32;76.10352;955.5287;;;;
2020/04/02 04:38:43;;;;;;;23.6;21.1;;;;;;;0.22;76.35547;955.5481;;;;
2020/04/02 04:41:08;;;;;;;25.7;21.4;;;;;;;0.14;76.96973;955.5516;;;;
2020/04/02 04:43:33;;;;;;;24.3;21.4;;;;;;;0.24;77.50488;955.5355;;;;
2020/04/02 04:45:58;;;;;;;24.3;21.7;;;;;;;0.26;76.68945;955.5828;;;;
2020/04/02 04:48:23;;;;;;;25;22.2;;;;;;;0.07;77.41699;955.561;;;;
2020/04/02 04:50:48;;;;;;;26.3;21.7;;;;;;;0.07;77.68652;955.5818;;;;
2020/04/02 04:53:13;;;;;;;25.4;21.7;;;;;;;0.29;76.87402;955.5313;;;;
2020/04/02 04:55:38;;;;;;;26.2;21.3;;;;;;;0.5;75.62988;955.6436;;;;
2020/04/02 04:58:03;;;;;;;23.7;21;;;;;;;0.39;76.4873;955.6008;;;;
2020/04/02 05:00:28;;;;;;;26.6;22.4;;;;;;;0.41;76.55859;955.5839;;;;
2020/04/02 05:02:54;;;;;;;25.8;22.5;;;;;;;0.29;77.01855;955.5945;;;;
2020/04/02 05:05:19;;;;;;;26.7;21.9;;;;;;;0.3;77.4248;955.5884;;;;
2020/04/02 05:07:44;;;;;;;27.1;22.7;;;;;;;0.24;77.88672;955.6028;;;;
2020/04/02 05:10:09;;;;;;;26.9;22.1;;;;;;;0.32;77.44141;955.6649;;;;
2020/04/02 05:12:34;;;;;;;26;22.1;;;;;;;0.42;76.95508;955.644;;;;
2020/04/02 05:14:59;;;;;;;25.2;22.3;;;;;;;0.38;78.16992;955.6335;;;;
2020/04/02 05:17:24;;;;;;;24.7;21.8;;;;;;;0.39;77.34375;955.6305;;;;
2020/04/02 05:19:49;;;;;;;26.6;21.9;;;;;;;0.38;78.21484;955.6969;;;;
2020/04/02 05:22:14;;;;;;;27.8;23.1;;;;;;;0.39;79.42285;955.6786;;;;
2020/04/02 05:24:39;;;;;;;28.7;23.7;;;;;;;0.37;79.50781;955.6845;;;;
2020/04/02 05:27:04;;;;;;;29.6;23.8;;;;;;;0.44;79.01367;955.6535;;;;
2020/04/02 05:29:29;;;;;;;32.3;23.6;;;;;;;0.35;80.38965;955.7514;;;;
2020/04/02 05:31:54;;;;;;;30.3;23.5;;;;;;;0.32;80.38477;955.7308;;;;
2020/04/02 05:34:20;;;;;;;28.8;22.8;;;;;;;0.39;80.04102;955.7731;;;;
2020/04/02 05:36:45;;;;;;;26.5;22.2;;;;;;;0.48;79.15625;955.7545;;;;
2020/04/02 05:39:10;;;;;;;25.7;23;;;;;;;0.48;79.71875;955.7299;;;;
2020/04/02 05:41:35;;;;;;;26.6;22.7;;;;;;;0.61;79.21387;955.7446;;;;
2020/04/02 05:44:00;;;;;;;29.9;24.1;;;;;;;0.5;79.66602;955.7528;;;;
2020/04/02 05:46:25;;;;;;;27.2;22.8;;;;;;;0.66;78.79688;955.766;;;;
2020/04/02 05:48:50;;;;;;;26.9;23.3;;;;;;;0.62;79.38379;955.8133;;;;
2020/04/02 05:51:16;;;;;;;31.9;23.6;;;;;;;0.74;78.82324;955.8602;;;;
2020/04/02 05:53:41;;;;;;;29.4;23.3;;;;;;;0.75;78.53027;955.8516;;;;
2020/04/02 05:56:06;;;;;;;29.8;24;;;;;;;0.58;78.90527;955.8067;;;;
2020/04/02 05:58:31;;;;;;;26.7;23.4;;;;;;;0.55;78.51758;955.8194;;;;
2020/04/02 06:00:57;;;;;;;25.8;22.8;;;;;;;0.54;79.60547;955.8379;;;;
2020/04/02 06:03:22;;;;;;;27;23.2;;;;;;;0.58;78.79297;955.8459;;;;
2020/04/02 06:05:47;;;;;;;27.3;23.1;;;;;;;0.71;78.14355;955.7932;;;;
2020/04/02 06:08:13;;;;;;;27;23.4;;;;;;;0.81;78.70117;955.7966;;;;
2020/04/02 06:10:38;;;;;;;25;22.3;;;;;;;0.85;77.32422;955.7424;;;;
2020/04/02 06:13:03;;;;;;;26.4;22.6;;;;;;;0.93;77.36133;955.7671;;;;
2020/04/02 06:15:28;;;;;;;26.4;22.9;;;;;;;1.03;75.92773;955.7631;;;;
2020/04/02 06:17:53;;;;;;;26.8;22.5;;;;;;;1.06;76.23828;955.7783;;;;
2020/04/02 06:20:19;;;;;;;27.2;22.8;;;;;;;1.05;77.21582;955.7555;;;;
2020/04/02 06:22:44;;;;;;;24.2;21.6;;;;;;;1.33;75.09375;955.7231;;;;
2020/04/02 06:25:09;;;;;;;26.2;21.7;;;;;;;1.39;75.34961;955.6809;;;;
2020/04/02 06:27:34;;;;;;;29.3;22.1;;;;;;;1.49;75.36914;955.6534;;;;
2020/04/02 06:29:59;;;;;;;31.8;23;;;;;;;1.55;75.19824;955.6312;;;;
2020/04/02 06:32:24;;;;;;;28.1;22.6;;;;;;;1.74;73.7334;955.5809;;;;
2020/04/02 06:34:49;;;;;;;28.1;22;;;;;;;1.66;72.58105;955.5715;;;;
2020/04/02 06:37:15;;;;;;;29.5;21.8;;;;;;;1.69;73.27344;955.5856;;;;
2020/04/02 06:39:40;;;;;;;27.2;22.6;;;;;;;1.68;73.03516;955.616;;;;
2020/04/02 06:42:05;;;;;;;28.9;21.1;;;;;;;1.87;71.56738;955.5611;;;;
2020/04/02 06:44:30;;;;;;;26.2;21.5;;;;;;;1.95;71.40039;955.567;;;;
2020/04/02 06:46:55;;;;;;;26.6;20.5;;;;;;;2.09;70.72363;955.5859;;;;
2020/04/02 06:49:20;;;;;;;23.5;20.2;;;;;;;2.1;71.1543;955.626;;;;
2020/04/02 06:51:46;;;;;;;26.7;19.9;;;;;;;2.33;69.75;955.6304;;;;
2020/04/02 06:54:11;;;;;;;23.3;19.7;;;;;;;2.37;68.86523;955.659;;;;
2020/04/02 06:56:36;;;;;;;22.4;18.3;;;;;;;2.4;69.13867;955.644;;;;
2020/04/02 06:59:01;;;;;;;27.3;20.2;;;;;;;2.56;67.90039;955.6547;;;;
2020/04/02 07:01:26;;;;;;;25.3;19.5;;;;;;;2.55;68.25977;955.6006;;;;
2020/04/02 07:03:52;;;;;;;25.7;18.8;;;;;;;2.6;67.05859;955.6178;;;;
2020/04/02 07:06:31;;;;;;;22.7;18.5;;;;;;;2.58;68.12891;955.6219;;;;
2020/04/02 07:08:42;;;;;;;22.3;19.5;;;;;;;2.42;67.82227;955.617;;;;
2020/04/02 07:11:07;;;;;;;23.5;19.1;;;;;;;2.48;67.57227;955.5959;;;;
2020/04/02 07:13:32;;;;;;;22.3;18.2;;;;;;;2.73;66.89844;955.5947;;;;
2020/04/02 07:15:57;;;;;;;23.3;18.1;;;;;;;2.72;66.7168;955.617;;;;
2020/04/02 07:18:22;;;;;;;22.6;18.1;;;;;;;2.86;66.37598;955.6225;;;;
2020/04/02 07:20:47;;;;;;;21.1;18.4;;;;;;;3.11;66.86719;955.6766;;;;
2020/04/02 07:23:13;;;;;;;23.1;18;;;;;;;3.24;65.36133;955.6238;;;;
2020/04/02 07:25:38;;;;;;;23;17.9;;;;;;;3.18;65.39844;955.5828;;;;
2020/04/02 07:28:03;;;;;;;23.5;17.3;;;;;;;3.1;64.28711;955.5938;;;;
2020/04/02 07:30:28;;;;;;;21.6;17.3;;;;;;;3.27;65.22949;955.5307;;;;
2020/04/02 07:32:53;;;;;;;22.6;18.5;;;;;;;3.48;65.35156;955.4955;;;;
2020/04/02 07:35:18;;;;;;;22.9;18.3;;;;;;;3.66;64.37109;955.4944;;;;
2020/04/02 07:37:44;;;;;;;23;18;;;;;;;3.43;63.96387;955.4517;;;;
2020/04/02 07:40:09;;;;;;;22.7;18.4;;;;;;;3.86;62.4082;955.397;;;;
2020/04/02 07:42:34;;;;;;;20.9;17.1;;;;;;;3.95;62.10449;955.3936;;;;
2020/04/02 07:44:59;;;;;;;19.7;16.7;;;;;;;3.87;61.00586;955.3552;;;;
2020/04/02 07:47:24;;;;;;;22.1;17;;;;;;;3.96;61.74316;955.368;;;;
2020/04/02 07:49:49;;;;;;;21.6;16.8;;;;;;;3.99;60.5127;955.361;;;;
2020/04/02 07:52:14;;;;;;;22.1;17;;;;;;;4.03;60.74414;955.3608;;;;
2020/04/02 07:54:39;;;;;;;20.9;17;;;;;;;4.3;60.7959;955.4094;;;;
2020/04/02 07:57:05;;;;;;;22;16.8;;;;;;;4.61;60.73633;955.4504;;;;
2020/04/02 07:59:30;;;;;;;20.8;16.3;;;;;;;4.77;60.3623;955.4196;;;;
2020/04/02 08:01:55;;;;;;;21.2;16.7;;;;;;;4.71;58.57129;955.4796;;;;
2020/04/02 08:04:20;;;;;;;22.4;16.7;;;;;;;4.75;59.53125;955.4317;;;;
2020/04/02 08:06:45;;;;;;;20.7;16.5;;;;;;;4.95;58.89941;955.4529;;;;
2020/04/02 08:09:10;;;;;;;20.5;16.1;;;;;;;5.15;58.63086;955.4565;;;;
2020/04/02 08:11:35;;;;;;;19.2;15.7;;;;;;;5.39;57.85742;955.4949;;;;
2020/04/02 08:14:00;;;;;;;20.8;16;;;;;;;5.36;57.18164;955.4512;;;;
2020/04/02 08:16:26;;;;;;;19.6;15.5;;;;;;;5.87;54.98535;955.4113;;;;
2020/04/02 08:18:51;;;;;;;17.2;15.2;;;;;;;5.87;56.42969;955.3974;;;;
2020/04/02 08:21:16;;;;;;;20.6;15.7;;;;;;;5.7;56.0791;955.4126;;;;
2020/04/02 08:23:41;;;;;;;16.6;14.7;;;;;;;5.81;54.9209;955.3892;;;;
2020/04/02 08:26:06;;;;;;;18.1;14.5;;;;;;;5.93;55.06055;955.3309;;;;
2020/04/02 08:28:31;;;;;;;21.3;14.8;;;;;;;5.97;54.75879;955.3077;;;;
2020/04/02 08:30:56;;;;;;;15.6;13.3;;;;;;;6.09;54.375;955.2659;;;;
2020/04/02 08:33:21;;;;;;;16.2;13.1;;;;;;;6.26;54.5332;955.2757;;;;
2020/04/02 08:35:46;;;;;;;18.8;13.5;;;;;;;6.53;53.07324;955.2419;;;;
2020/04/02 08:38:12;;;;;;;20.6;14.2;;;;;;;6.67;52.24707;955.2463;;;;
2020/04/02 08:40:37;;;;;;;16.4;13.8;;;;;;;6.72;50.87305;955.2364;;;;
2020/04/02 08:43:02;;;;;;;18.1;13.8;;;;;;;6.74;50.4873;955.2314;;;;
2020/04/02 08:45:27;;;;;;;16.8;13.7;;;;;;;6.89;51.85156;955.2386;;;;
2020/04/02 08:47:52;;;;;;;14.7;13;;;;;;;6.91;50.64551;955.24;;;;
2020/04/02 08:50:18;;;;;;;14.7;12.2;;;;;;;6.97;51.08594;955.2449;;;;
2020/04/02 08:52:43;;;;;;;15.7;12.5;;;;;;;7.11;47.90625;955.2035;;;;
2020/04/02 08:55:08;;;;;;;16.5;12.5;;;;;;;7.19;46.61328;955.1903;;;;
2020/04/02 08:57:33;;;;;;;13.3;11.9;;;;;;;7.26;48.40137;955.1497;;;;
2020/04/02 08:59:59;;;;;;;14.5;12;;;;;;;7.3;48.90918;955.1676;;;;
2020/04/02 09:02:24;;;;;;;13.8;12.3;;;;;;;7.32;47.0957;955.0881;;;;
2020/04/02 09:04:49;;;;;;;13.4;12;;;;;;;7.29;47.49219;955.0396;;;;
2020/04/02 09:07:14;;;;;;;13.2;11.8;;;;;;;7.62;46.39648;955.1194;;;;
2020/04/02 09:09:39;;;;;;;13.1;11.7;;;;;;;7.63;45.79102;955.1194;;;;
2020/04/02 09:12:20;;;;;;;16.2;12.7;;;;;;;7.62;45.57324;955.0974;;;;
2020/04/02 09:14:45;;;;;;;15.6;12.4;;;;;;;7.73;43.5625;955.0036;;;;
2020/04/02 09:17:10;;;;;;;13.7;11.8;;;;;;;7.9;43.36133;955.0066;;;;
2020/04/02 09:19:35;;;;;;;13.7;11.8;;;;;;;7.92;45.12598;955.0051;;;;
2020/04/02 09:22:00;;;;;;;12.4;11.1;;;;;;;7.85;40.58887;954.9778;;;;
2020/04/02 09:24:26;;;;;;;12.4;11.1;;;;;;;7.7;40.35645;954.9744;;;;
2020/04/02 09:26:51;;;;;;;13;10.3;;;;;;;7.85;40.88574;954.9672;;;;
2020/04/02 09:29:16;;;;;;;12.2;11;;;;;;;7.55;41.26855;954.9484;;;;
2020/04/02 09:31:41;;;;;;;13.7;11.3;;;;;;;7.7;42.06055;954.835;;;;
2020/04/02 09:34:06;;;;;;;12.8;11.5;;;;;;;7.78;42.43359;954.8254;;;;
2020/04/02 09:36:31;;;;;;;12.4;10.9;;;;;;;7.96;42.14355;954.8692;;;;
2020/04/02 09:38:56;;;;;;;12.4;11;;;;;;;8.18;41.68457;954.8103;;;;
2020/04/02 09:41:21;;;;;;;12.8;11.5;;;;;;;8.38;42.71094;954.8225;;;;
2020/04/02 09:43:46;;;;;;;13.7;11.7;;;;;;;8.37;42.00098;954.7961;;;;
2020/04/02 09:46:11;;;;;;;13.3;12;;;;;;;8.39;40.43457;954.8554;;;;
2020/04/02 09:48:36;;;;;;;13.1;11.8;;;;;;;8.44;41.88086;954.8377;;;;
2020/04/02 09:51:01;;;;;;;13.9;12;;;;;;;8.49;41.39258;954.8442;;;;
2020/04/02 09:53:27;;;;;;;14.1;11.4;;;;;;;8.49;39.53711;954.8117;;;;
2020/04/02 09:55:52;;;;;;;13.9;11.2;;;;;;;8.57;41.60742;954.7938;;;;
2020/04/02 09:58:17;;;;;;;13.2;11.5;;;;;;;8.44;40.65625;954.7631;;;;
2020/04/02 10:00:42;;;;;;;14.9;11.8;;;;;;;8.63;40.57129;954.7365;;;;
2020/04/02 10:03:08;;;;;;;13.6;11.7;;;;;;;8.68;41.20605;954.6791;;;;
2020/04/02 10:05:33;;;;;;;14.7;12;;;;;;;8.88;41.46484;954.6661;;;;
2020/04/02 10:07:58;;;;;;;14;11.9;;;;;;;8.93;40.06055;954.6582;;;;
2020/04/02 10:10:23;;;;;;;16.8;12.6;;;;;;;8.9;39.79395;954.6536;;;;
2020/04/02 10:12:49;;;;;;;16.2;12.6;;;;;;;8.92;40.25391;954.6297;;;;
2020/04/02 10:15:14;;;;;;;13.7;11.8;;;;;;;8.91;39.57813;954.6085;;;;
2020/04/02 10:17:39;;;;;;;12.9;11.4;;;;;;;9.04;39.16504;954.535;;;;
2020/04/02 10:20:04;;;;;;;13.2;11.8;;;;;;;8.83;39.6377;954.5558;;;;
2020/04/02 10:22:29;;;;;;;13.8;11.9;;;;;;;8.89;39.03613;954.5691;;;;
2020/04/02 10:24:54;;;;;;;13;11.6;;;;;;;9.06;39.4873;954.5034;;;;
2020/04/02 10:27:19;;;;;;;13.3;11.9;;;;;;;9.02;37.70703;954.4573;;;;
2020/04/02 10:29:45;;;;;;;14.1;12.2;;;;;;;8.92;38.03027;954.4688;;;;
2020/04/02 10:32:10;;;;;;;13.4;12;;;;;;;9;37.8418;954.4256;;;;
2020/04/02 10:34:35;;;;;;;13.2;11.9;;;;;;;9.42;36.57031;954.3448;;;;
2020/04/02 10:37:00;;;;;;;13.1;11.7;;;;;;;9.63;37.3457;954.3457;;;;
2020/04/02 10:39:25;;;;;;;13.7;11.9;;;;;;;9.62;36.63281;954.3323;;;;
2020/04/02 10:41:51;;;;;;;14.5;12.1;;;;;;;9.38;36.52051;954.2996;;;;
2020/04/02 10:44:16;;;;;;;14.7;12.5;;;;;;;9.59;36.94141;954.3051;;;;
2020/04/02 10:46:52;;;;;;;13.2;11.8;;;;;;;9.66;37.95801;954.2469;;;;
2020/04/02 10:49:08;;;;;;;12.8;11.1;;;;;;;9.83;37.43262;954.24;;;;
2020/04/02 10:51:38;;;;;;;16;14.3;;;;;;;9.77;37.62305;954.1563;;;;
2020/04/02 10:53:58;;;;;;;14.8;12.7;;;;;;;9.87;38.7002;954.1631;;;;
2020/04/02 10:56:21;;;;;;;13.7;11.9;;;;;;;9.99;36.37793;954.1577;;;;
2020/04/02 10:58:46;;;;;;;13.8;12.3;;;;;;;9.97;34.9043;954.0978;;;;
2020/04/02 11:01:11;;;;;;;14.5;12.1;;;;;;;10.13;34.41113;954.1476;;;;
2020/04/02 11:03:36;;;;;;;14.7;13.2;;;;;;;10.09;34.82227;954.0912;;;;
2020/04/02 11:06:01;;;;;;;13.5;12.1;;;;;;;9.79;34.25684;954.0175;;;;
2020/04/02 11:08:26;;;;;;;14.5;12.8;;;;;;;9.75;34.86426;953.9785;;;;
2020/04/02 11:10:51;;;;;;;13.9;12.5;;;;;;;10.1;34.46582;953.9861;;;;
2020/04/02 11:13:16;;;;;;;14.9;12.7;;;;;;;10.11;34.58301;953.9824;;;;
2020/04/02 11:15:41;;;;;;;14.7;12.2;;;;;;;10.36;34.00391;953.9919;;;;
2020/04/02 11:18:07;;;;;;;14.7;12.4;;;;;;;10.29;34.30957;953.9611;;;;
2020/04/02 11:20:32;;;;;;;15.9;13.8;;;;;;;10.35;34.07227;954.0217;;;;
2020/04/02 11:22:57;;;;;;;15.8;12.5;;;;;;;10.13;34.00977;953.9629;;;;
2020/04/02 11:25:22;;;;;;;13.4;11.9;;;;;;;10.06;35.45215;953.9386;;;;
2020/04/02 11:27:47;;;;;;;14.6;12.6;;;;;;;10;34.99902;953.955;;;;
2020/04/02 11:30:12;;;;;;;13.7;12.2;;;;;;;10.46;34.19629;953.887;;;;
2020/04/02 11:32:38;;;;;;;14.4;12.6;;;;;;;10.26;34.11133;953.9087;;;;
2020/04/02 11:35:03;;;;;;;13.6;12.2;;;;;;;10.5;33.62402;953.8917;;;;
2020/04/02 11:37:28;;;;;;;15.5;13.9;;;;;;;10.61;33.36816;953.8151;;;;
2020/04/02 11:39:53;;;;;;;14.1;12.6;;;;;;;10.71;33.6748;953.804;;;;
2020/04/02 11:42:22;;;;;;;14.2;12.4;;;;;;;10.78;34.73926;953.7572;;;;
2020/04/02 11:44:44;;;;;;;14.6;12.1;;;;;;;10.82;33.4873;953.7159;;;;
2020/04/02 11:47:09;;;;;;;14.7;13.2;;;;;;;10.35;34.4873;953.5909;;;;
2020/04/02 11:49:34;;;;;;;14.7;12.6;;;;;;;10.3;34.48242;953.6021;;;;
2020/04/02 11:51:59;;;;;;;14.8;12.3;;;;;;;10.38;35.4209;953.5516;;;;
2020/04/02 11:54:24;;;;;;;14.5;13;;;;;;;10.76;34.07031;953.4856;;;;
2020/04/02 11:56:50;;;;;;;14;12.6;;;;;;;10.85;34.11133;953.5083;;;;
2020/04/02 11:59:15;;;;;;;14.5;12.5;;;;;;;11.03;33.72266;953.4395;;;;
2020/04/02 12:01:40;;;;;;;14.3;12.6;;;;;;;11.3;33.65137;953.4128;;;;
2020/04/02 12:04:05;;;;;;;16;12.7;;;;;;;11.2;34.23145;953.3911;;;;
2020/04/02 12:06:30;;;;;;;14.9;13.3;;;;;;;11.31;33.42188;953.3853;;;;
2020/04/02 12:08:55;;;;;;;15.6;13.9;;;;;;;11.33;33.50391;953.32;;;;
2020/04/02 12:11:21;;;;;;;17.3;13.9;;;;;;;10.97;34.58203;953.2427;;;;
2020/04/02 12:13:46;;;;;;;15.7;13.1;;;;;;;11.11;33.36035;953.2201;;;;
2020/04/02 12:16:11;;;;;;;14.3;12.2;;;;;;;11.48;31.63574;953.165;;;;
2020/04/02 12:18:36;;;;;;;13.4;12;;;;;;;11.87;31.79199;953.1947;;;;
2020/04/02 12:21:01;;;;;;;13;11.7;;;;;;;11.89;30.94922;953.2252;;;;
2020/04/02 12:23:26;;;;;;;15.4;12.2;;;;;;;12.06;29.88867;953.1857;;;;
2020/04/02 12:25:51;;;;;;;13.9;11.7;;;;;;;12.25;29.47363;953.2433;;;;
2020/04/02 12:28:16;;;;;;;13;11.4;;;;;;;11.95;29.0498;953.155;;;;
2020/04/02 12:30:41;;;;;;;12.6;11;;;;;;;12.08;29.94629;953.1708;;;;
2020/04/02 12:33:07;;;;;;;13;11.7;;;;;;;12.31;30.15918;953.1691;;;;
2020/04/02 12:35:32;;;;;;;12.4;11.1;;;;;;;12.34;29.88477;953.0726;;;;
2020/04/02 12:37:57;;;;;;;13.2;11.4;;;;;;;12.14;29.3623;953.0869;;;;
2020/04/02 12:40:22;;;;;;;11.7;10.5;;;;;;;12.5;29.19043;953.0167;;;;
2020/04/02 12:42:47;;;;;;;12.2;10.9;;;;;;;12.36;30.1748;952.9772;;;;
2020/04/02 12:45:12;;;;;;;12.9;11.4;;;;;;;12.73;28.92773;952.9643;;;;
2020/04/02 12:47:38;;;;;;;12.3;11;;;;;;;12.44;30.08789;952.9738;;;;
2020/04/02 12:50:03;;;;;;;13;11.3;;;;;;;12.73;29.36719;952.9095;;;;
2020/04/02 12:52:28;;;;;;;13.6;11.3;;;;;;;12.5;28.94727;952.9453;;;;
2020/04/02 12:54:53;;;;;;;13.6;11.7;;;;;;;12.58;27.99219;952.8359;;;;
2020/04/02 12:57:19;;;;;;;13;11.4;;;;;;;12.82;29.43066;952.786;;;;
2020/04/02 12:59:44;;;;;;;12.8;11.4;;;;;;;12.47;29.98535;952.7532;;;;
2020/04/02 13:02:09;;;;;;;16.3;12.7;;;;;;;12.73;29.41309;952.7313;;;;
2020/04/02 13:04:34;;;;;;;13.3;11.9;;;;;;;13.06;28.34766;952.6933;;;;
2020/04/02 13:06:59;;;;;;;15.3;13.7;;;;;;;12.84;29.21289;952.759;;;;
2020/04/02 13:09:24;;;;;;;14.9;12.1;;;;;;;12.69;30.92578;952.6545;;;;
2020/04/02 13:11:49;;;;;;;13.4;12;;;;;;;13.16;30.05664;952.6995;;;;
2020/04/02 13:14:15;;;;;;;16.2;14.4;;;;;;;13.08;30.02832;952.735;;;;
2020/04/02 13:16:40;;;;;;;14.8;12.8;;;;;;;12.82;30.47266;952.6428;;;;
2020/04/02 13:19:05;;;;;;;14;12.6;;;;;;;12.65;31.17773;952.6481;;;;
2020/04/02 13:21:30;;;;;;;15.8;13.1;;;;;;;12.47;32.05469;952.5898;;;;
2020/04/02 13:23:55;;;;;;;14.2;12.7;;;;;;;12.66;29.66406;952.5908;;;;
2020/04/02 13:26:20;;;;;;;13.5;12.1;;;;;;;12.78;30.2959;952.5768;;;;
2020/04/02 13:29:02;;;;;;;13.9;12.4;;;;;;;12.79;29.49902;952.5302;;;;
2020/04/02 13:31:12;;;;;;;13.9;12.5;;;;;;;13.18;29.9541;952.5457;;;;
2020/04/02 13:33:35;;;;;;;13.8;12.4;;;;;;;13.02;29.60645;952.524;;;;
2020/04/02 13:36:00;;;;;;;14.7;13.1;;;;;;;13.04;29.64258;952.4878;;;;
2020/04/02 13:38:25;;;;;;;14.5;12.7;;;;;;;12.74;29.81934;952.5089;;;;
2020/04/02 13:40:50;;;;;;;14.7;13.2;;;;;;;13.05;30.37305;952.5281;;;;
2020/04/02 13:43:15;;;;;;;14.1;12.6;;;;;;;13.11;29.91406;952.4724;;;;
2020/04/02 13:45:40;;;;;;;13.7;11.8;;;;;;;12.73;29.43652;952.4075;;;;
2020/04/02 13:48:05;;;;;;;13.5;11.2;;;;;;;13.14;28.20215;952.3855;;;;
2020/04/02 13:50:30;;;;;;;13;11.6;;;;;;;13.25;28.82324;952.3845;;;;
2020/04/02 13:52:56;;;;;;;13.8;12.3;;;;;;;13.4;29.4707;952.3563;;;;
2020/04/02 13:55:21;;;;;;;14.1;12.6;;;;;;;13.29;29.98438;952.41;;;;
2020/04/02 13:57:46;;;;;;;16;14.1;;;;;;;12.78;29.61328;952.2997;;;;
2020/04/02 14:00:11;;;;;;;15.3;13.5;;;;;;;12.66;29.69727;952.3203;;;;
2020/04/02 14:02:36;;;;;;;14.5;13;;;;;;;12.96;30.19336;952.3492;;;;
2020/04/02 14:05:02;;;;;;;14.7;12.6;;;;;;;13.25;30.00488;952.2886;;;;